Terminal Aerodrome Forecast
Issued by NWS

Home | Current Version | Previous Version | Text Only | Print | Product List | Glossary On
Versions: 1 2 3 4 5 6 7 8 9 10 11 12 13 14
000
FTUS45 KRIW 132300
TAFCOD
TAF
KCOD 132329Z 1400/1424 03008KT P6SM SCT100
     FM140200 VRB05KT P6SM FEW100
     FM141800 01010KT P6SM FEW080 BKN150
     FM142100 28010G25KT P6SM VCTS FEW070CB OVC150
      AMD LTD TO CLD VIS AND WIND=

USA.gov is the U.S. government's official web portal to all federal, state and local government web resources and services.